Time;durP1;ratioP1;P1;durP2;ratioP2;P2;SDS_P1;SDS_P2;PMS_P1;PMS_P2;Temp;Humidity;BMP_temperature;BMP_pressure;BME280_temperature;BME280_humidity;BME280_pressure;Samples;Min_cycle;Max_cycle;Signal;HPM_P1;HPM_P2
2023/12/28 00:01:50;;;;;;;80.20;53.90;;;;;;;-0.01;100.00;99242.30;109319;1254;63971;-76
2023/12/28 00:04:17;;;;;;;87.00;54.50;;;;;;;-0.02;100.00;99235.51;109257;1253;58254;-76
2023/12/28 00:06:43;;;;;;;77.40;52.10;;;;;;;-0.03;100.00;99223.64;109309;1253;58090;-76
2023/12/28 00:09:10;;;;;;;77.60;53.10;;;;;;;-0.04;100.00;99220.00;109296;1254;65461;-76
2023/12/28 00:11:37;;;;;;;78.70;52.70;;;;;;;-0.06;100.00;99219.35;109335;1253;61047;-76
2023/12/28 00:14:03;;;;;;;81.10;51.60;;;;;;;-0.07;100.00;99217.09;109216;1257;63997;-77
2023/12/28 00:16:32;;;;;;;72.90;51.90;;;;;;;-0.07;100.00;99217.45;109282;1253;58189;-76
2023/12/28 00:18:59;;;;;;;78.20;50.50;;;;;;;-0.07;100.00;99219.37;109142;1253;58676;-78
2023/12/28 00:21:26;;;;;;;76.80;51.90;;;;;;;-0.08;100.00;99219.55;109306;1253;66272;-76
2023/12/28 00:23:52;;;;;;;72.40;49.80;;;;;;;-0.09;100.00;99222.38;109254;1253;61068;-77
2023/12/28 00:26:21;;;;;;;74.80;49.10;;;;;;;-0.11;100.00;99221.89;109240;1254;65046;-76
2023/12/28 00:28:48;;;;;;;78.80;49.10;;;;;;;-0.13;100.00;99214.59;106942;1254;1002830;-76
2023/12/28 00:31:14;;;;;;;82.20;51.40;;;;;;;-0.15;100.00;99209.58;109257;1255;58242;-76
2023/12/28 00:33:41;;;;;;;72.80;47.90;;;;;;;-0.17;100.00;99203.66;109080;1254;65224;-76
2023/12/28 00:36:08;;;;;;;76.50;45.60;;;;;;;-0.19;100.00;99201.27;109289;1254;61130;-77
2023/12/28 00:38:34;;;;;;;76.20;48.10;;;;;;;-0.21;100.00;99197.48;109216;1254;63888;-75
2023/12/28 00:41:01;;;;;;;75.10;49.30;;;;;;;-0.22;100.00;99193.65;109236;1253;58529;-75
2023/12/28 00:43:27;;;;;;;71.10;48.00;;;;;;;-0.24;100.00;99190.19;109270;1254;58195;-75
2023/12/28 00:45:54;;;;;;;63.10;43.20;;;;;;;-0.25;100.00;99185.67;109260;1254;64957;-76
2023/12/28 00:48:21;;;;;;;73.70;46.40;;;;;;;-0.25;100.00;99180.25;109234;1253;61121;-75
2023/12/28 00:50:47;;;;;;;77.30;49.40;;;;;;;-0.25;100.00;99175.02;109123;1254;65027;-75
2023/12/28 00:53:15;;;;;;;65.50;44.60;;;;;;;-0.26;100.00;99175.39;109072;1253;58612;-76
2023/12/28 00:55:41;;;;;;;77.30;48.00;;;;;;;-0.28;100.00;99175.59;109262;1253;58415;-75
2023/12/28 00:58:08;;;;;;;74.00;49.20;;;;;;;-0.29;100.00;99168.11;109331;1253;66283;-76
2023/12/28 01:00:34;;;;;;;71.90;48.30;;;;;;;-0.30;100.00;99162.39;109155;1254;61080;-75
2023/12/28 01:03:01;;;;;;;73.80;46.50;;;;;;;-0.31;100.00;99163.63;109134;1254;62638;-75
2023/12/28 01:05:28;;;;;;;74.30;48.10;;;;;;;-0.32;100.00;99164.69;109238;1253;58673;-76
2023/12/28 01:07:55;;;;;;;71.70;46.90;;;;;;;-0.32;100.00;99164.15;109055;1254;58956;-76
2023/12/28 01:10:21;;;;;;;78.10;49.10;;;;;;;-0.32;100.00;99166.08;109216;1253;72556;-76
2023/12/28 01:12:48;;;;;;;74.80;47.10;;;;;;;-0.31;100.00;99165.55;109183;1253;60068;-77
2023/12/28 01:15:15;;;;;;;70.70;47.00;;;;;;;-0.31;100.00;99161.70;109211;1254;65072;-76
2023/12/28 01:17:41;;;;;;;65.80;44.90;;;;;;;-0.32;100.00;99160.66;109262;1253;59809;-76
2023/12/28 01:20:08;;;;;;;75.50;47.10;;;;;;;-0.32;100.00;99150.70;109267;1253;58404;-76
2023/12/28 01:22:35;;;;;;;67.10;44.90;;;;;;;-0.32;100.00;99147.40;109275;1252;64917;-77
2023/12/28 01:25:01;;;;;;;73.30;47.10;;;;;;;-0.32;100.00;99148.45;109117;1253;61175;-76
2023/12/28 01:27:28;;;;;;;71.80;48.00;;;;;;;-0.33;100.00;99157.91;109402;1252;64145;-75
2023/12/28 01:29:54;;;;;;;74.40;47.70;;;;;;;-0.34;100.00;99155.30;109388;1254;58203;-75
2023/12/28 01:32:21;;;;;;;72.70;46.70;;;;;;;-0.33;100.00;99155.80;109424;1253;58250;-76
2023/12/28 01:34:48;;;;;;;70.20;46.90;;;;;;;-0.31;100.00;99148.25;109427;1254;65642;-76
2023/12/28 01:37:14;;;;;;;65.70;47.00;;;;;;;-0.30;100.00;99144.73;109418;1254;61143;-76
2023/12/28 01:39:41;;;;;;;72.80;47.70;;;;;;;-0.29;100.00;99144.55;109419;1252;65076;-76
2023/12/28 01:42:07;;;;;;;70.50;45.30;;;;;;;-0.29;100.00;99144.20;109404;1252;58265;-77
2023/12/28 01:44:34;;;;;;;66.70;46.10;;;;;;;-0.30;100.00;99143.52;109388;1253;58317;-76
2023/12/28 01:47:01;;;;;;;69.60;45.30;;;;;;;-0.31;100.00;99141.98;109388;1254;66538;-76
2023/12/28 01:49:28;;;;;;;67.10;44.00;;;;;;;-0.33;100.00;99131.88;109238;1254;61052;-76
2023/12/28 01:51:55;;;;;;;67.80;42.50;;;;;;;-0.31;100.00;99127.82;109155;1253;64195;-74
2023/12/28 01:54:22;;;;;;;69.50;43.80;;;;;;;-0.30;100.00;99125.54;109163;1253;58268;-75
2023/12/28 01:56:49;;;;;;;64.80;41.60;;;;;;;-0.30;100.00;99127.81;109232;1253;58648;-76
2023/12/28 01:59:15;;;;;;;66.40;42.10;;;;;;;-0.32;100.00;99126.98;109233;1254;65204;-76
2023/12/28 02:01:42;;;;;;;69.20;45.70;;;;;;;-0.34;100.00;99123.02;108946;1254;60548;-76
2023/12/28 02:04:08;;;;;;;63.10;43.80;;;;;;;-0.35;100.00;99119.02;109206;1253;65064;-75
2023/12/28 02:06:35;;;;;;;66.20;45.00;;;;;;;-0.37;100.00;99110.67;109221;1254;58787;-76
2023/12/28 02:09:02;;;;;;;65.60;45.80;;;;;;;-0.38;100.00;99105.11;109235;1253;58563;-76
2023/12/28 02:11:28;;;;;;;65.80;42.80;;;;;;;-0.38;100.00;99103.20;109127;1253;65166;-76
2023/12/28 02:13:55;;;;;;;70.80;44.50;;;;;;;-0.38;100.00;99101.97;109068;1253;58802;-76
2023/12/28 02:16:33;;;;;;;75.40;44.10;;;;;;;-0.40;100.00;99095.20;109189;1254;64004;-76
2023/12/28 02:19:05;;;;;;;67.30;45.70;;;;;;;-0.41;100.00;99086.51;109233;1254;58349;-76
2023/12/28 02:21:33;;;;;;;68.50;45.40;;;;;;;-0.43;100.00;99087.95;109261;1253;59283;-75
2023/12/28 02:24:00;;;;;;;61.70;44.80;;;;;;;-0.46;100.00;99088.36;108946;1254;66250;-77
2023/12/28 02:26:26;;;;;;;67.40;45.60;;;;;;;-0.49;100.00;99089.80;109232;1253;60160;-76
2023/12/28 02:28:53;;;;;;;72.60;48.50;;;;;;;-0.52;100.00;99089.68;109275;1253;64061;-77
2023/12/28 02:31:39;;;;;;;69.70;48.40;;;;;;;-0.54;100.00;99088.52;109200;1254;58725;-75
2023/12/28 02:34:12;;;;;;;73.50;47.20;;;;;;;-0.57;100.00;99091.21;109153;1253;58377;-74
2023/12/28 02:36:44;;;;;;;70.70;47.30;;;;;;;-0.61;100.00;99080.64;109224;1253;66688;-75
2023/12/28 02:39:15;;;;;;;67.20;44.40;;;;;;;-0.64;100.00;99078.42;109123;1254;60072;-75
2023/12/28 02:41:44;;;;;;;67.60;46.40;;;;;;;-0.65;100.00;99079.50;109248;1253;66511;-75
2023/12/28 02:44:10;;;;;;;69.40;44.20;;;;;;;-0.68;100.00;99078.48;109235;1253;58232;-75
2023/12/28 02:46:37;;;;;;;66.50;45.10;;;;;;;-0.69;100.00;99075.38;108516;1253;1002375;-76
2023/12/28 02:49:04;;;;;;;66.50;46.10;;;;;;;-0.70;100.00;99079.08;109242;1253;66480;-76
2023/12/28 02:51:30;;;;;;;73.70;48.20;;;;;;;-0.71;100.00;99074.72;109254;1254;60864;-75
2023/12/28 02:53:57;;;;;;;64.70;45.50;;;;;;;-0.70;100.00;99078.36;108972;1253;62866;-76
2023/12/28 02:56:23;;;;;;;68.50;47.30;;;;;;;-0.70;100.00;99081.15;109234;1253;58186;-76
2023/12/28 02:58:50;;;;;;;70.80;49.50;;;;;;;-0.71;100.00;99080.30;109242;1253;58326;-75
2023/12/28 03:01:16;;;;;;;71.60;46.20;;;;;;;-0.72;100.00;99082.42;109237;1253;65287;-78
2023/12/28 03:03:43;;;;;;;76.10;47.70;;;;;;;-0.73;100.00;99078.43;109250;1253;60030;-76
2023/12/28 03:06:09;;;;;;;68.70;47.80;;;;;;;-0.73;100.00;99070.23;109232;1253;64132;-75
2023/12/28 03:08:36;;;;;;;76.20;51.20;;;;;;;-0.73;100.00;99068.84;109205;1253;59285;-76
2023/12/28 03:11:03;;;;;;;69.00;48.80;;;;;;;-0.74;100.00;99063.98;109241;1253;58640;-75
2023/12/28 03:13:29;;;;;;;71.80;50.40;;;;;;;-0.75;100.00;99066.45;109265;1253;66210;-76
2023/12/28 03:15:56;;;;;;;67.60;48.80;;;;;;;-0.78;100.00;99067.54;109184;1253;61324;-76
2023/12/28 03:18:22;;;;;;;65.50;46.70;;;;;;;-0.82;100.00;99063.95;109237;1253;65076;-76
2023/12/28 03:20:49;;;;;;;67.90;48.40;;;;;;;-0.85;100.00;99058.79;109225;1253;58229;-75
2023/12/28 03:23:15;;;;;;;65.20;46.80;;;;;;;-0.90;100.00;99053.46;109164;1253;58622;-75
2023/12/28 03:25:42;;;;;;;65.20;45.70;;;;;;;-0.93;100.00;99051.63;109226;1252;66371;-76
2023/12/28 03:28:08;;;;;;;69.80;46.70;;;;;;;-0.98;100.00;99055.38;109227;1253;59379;-76
2023/12/28 03:30:35;;;;;;;66.00;45.30;;;;;;;-1.05;100.00;99054.11;109217;1253;65059;-75
2023/12/28 03:33:01;;;;;;;66.00;45.50;;;;;;;-1.11;100.00;99050.92;109192;1253;58219;-76
2023/12/28 03:35:28;;;;;;;64.10;46.50;;;;;;;-1.16;100.00;99051.17;109271;1252;58296;-76
2023/12/28 03:37:55;;;;;;;65.40;49.00;;;;;;;-1.19;100.00;99053.66;109166;1253;66487;-76
2023/12/28 03:40:21;;;;;;;64.20;47.00;;;;;;;-1.21;100.00;99051.11;109235;1253;61121;-76
2023/12/28 03:42:48;;;;;;;69.30;47.30;;;;;;;-1.24;100.00;99042.61;109239;1253;65191;-75
2023/12/28 03:45:15;;;;;;;70.70;48.10;;;;;;;-1.29;100.00;99040.79;109197;1253;58205;-75
2023/12/28 03:47:42;;;;;;;79.70;55.60;;;;;;;-1.31;100.00;99038.22;109224;1253;58328;-76
2023/12/28 03:50:09;;;;;;;72.40;52.00;;;;;;;-1.33;100.00;99044.33;109085;1252;65946;-74
2023/12/28 03:52:35;;;;;;;70.50;50.70;;;;;;;-1.34;100.00;99043.33;109213;1253;61170;-75
2023/12/28 03:55:02;;;;;;;78.20;53.00;;;;;;;-1.37;100.00;99045.28;109205;1252;63882;-75
2023/12/28 03:57:29;;;;;;;80.40;55.30;;;;;;;-1.39;100.00;99035.58;109181;1254;58225;-74
2023/12/28 03:59:56;;;;;;;68.30;49.60;;;;;;;-1.42;100.00;99029.52;108377;1253;1007274;-75
2023/12/28 04:02:24;;;;;;;73.20;52.70;;;;;;;-1.43;100.00;99030.06;109218;1254;64902;-75
2023/12/28 04:04:52;;;;;;;71.80;52.70;;;;;;;-1.46;100.00;99032.04;109164;1252;61242;-77
2023/12/28 04:07:19;;;;;;;79.30;54.60;;;;;;;-1.48;100.00;99032.26;109235;1253;65014;-76
2023/12/28 04:09:46;;;;;;;75.00;53.80;;;;;;;-1.51;100.00;99026.53;109255;1252;58786;-74
2023/12/28 04:12:12;;;;;;;80.00;55.40;;;;;;;-1.53;100.00;99026.59;109298;1253;58519;-75
2023/12/28 04:14:39;;;;;;;79.20;56.00;;;;;;;-1.55;100.00;99029.58;109203;1252;66014;-75
2023/12/28 04:17:05;;;;;;;76.20;54.50;;;;;;;-1.57;100.00;99036.73;109255;1253;61236;-75
2023/12/28 04:19:32;;;;;;;82.00;57.20;;;;;;;-1.59;100.00;99042.89;109156;1252;64120;-76
2023/12/28 04:21:58;;;;;;;84.20;60.00;;;;;;;-1.60;100.00;99049.54;109190;1253;58412;-76
2023/12/28 04:24:25;;;;;;;79.20;56.50;;;;;;;-1.60;100.00;99058.23;109291;1253;58411;-76
2023/12/28 04:26:51;;;;;;;84.90;62.30;;;;;;;-1.60;100.00;99066.08;109374;1253;63960;-76
2023/12/28 04:29:18;;;;;;;87.60;64.20;;;;;;;-1.62;100.00;99075.70;109423;1252;61039;-76
2023/12/28 04:31:45;;;;;;;90.30;63.50;;;;;;;-1.64;100.00;99082.69;109394;1253;65033;-76
2023/12/28 04:34:12;;;;;;;87.60;64.70;;;;;;;-1.65;100.00;99084.45;108597;1254;1002729;-75
2023/12/28 04:36:43;;;;;;;88.10;66.20;;;;;;;-1.66;100.00;99082.55;109370;1252;58467;-76
2023/12/28 04:39:09;;;;;;;83.80;63.00;;;;;;;-1.68;100.00;99079.95;109301;1252;65149;-76
2023/12/28 04:41:36;;;;;;;92.70;67.80;;;;;;;-1.70;100.00;99076.70;109431;1252;61176;-76
2023/12/28 04:44:03;;;;;;;91.80;65.90;;;;;;;-1.71;100.00;99069.92;109393;1252;64100;-76
2023/12/28 04:46:30;;;;;;;91.10;65.00;;;;;;;-1.72;100.00;99071.67;109273;1253;58532;-76
2023/12/28 04:48:56;;;;;;;89.90;65.70;;;;;;;-1.73;100.00;99070.64;109364;1253;58244;-76
2023/12/28 04:51:23;;;;;;;96.10;68.60;;;;;;;-1.75;100.00;99066.34;109373;1257;66291;-75
2023/12/28 04:53:50;;;;;;;86.70;64.60;;;;;;;-1.79;100.00;99060.80;109434;1253;61016;-75
2023/12/28 04:56:19;;;;;;;94.80;68.40;;;;;;;-1.85;100.00;99059.87;109346;1252;64091;-75
2023/12/28 04:58:46;;;;;;;95.40;68.60;;;;;;;-1.90;100.00;99067.25;109322;1253;58153;-75
2023/12/28 05:01:13;;;;;;;108.00;80.50;;;;;;;-1.95;100.00;99073.61;108623;1253;1002417;-76
2023/12/28 05:03:39;;;;;;;158.70;104.00;;;;;;;-1.99;100.00;99077.14;108617;1252;1002753;-75
2023/12/28 05:06:06;;;;;;;155.10;105.40;;;;;;;-1.99;100.00;99078.55;108621;1252;1002787;-76
2023/12/28 05:08:33;;;;;;;112.50;83.50;;;;;;;-2.00;100.00;99081.52;109296;1252;65107;-75
2023/12/28 05:10:59;;;;;;;122.80;92.70;;;;;;;-2.01;100.00;99091.45;109386;1253;58184;-76
2023/12/28 05:13:26;;;;;;;115.50;86.70;;;;;;;-2.02;100.00;99087.98;109380;1253;58150;-76
2023/12/28 05:15:52;;;;;;;113.10;86.90;;;;;;;-2.02;100.00;99082.77;109425;1252;66207;-76
2023/12/28 05:18:19;;;;;;;109.10;80.40;;;;;;;-2.04;100.00;99079.31;109420;1252;58741;-75
2023/12/28 05:20:45;;;;;;;99.50;72.60;;;;;;;-2.08;100.00;99072.77;109384;1252;64105;-74
2023/12/28 05:23:12;;;;;;;95.20;70.90;;;;;;;-2.16;100.00;99071.46;109350;1254;58266;-74
2023/12/28 05:25:38;;;;;;;97.30;71.40;;;;;;;-2.24;100.00;99068.80;109202;1253;58327;-74
2023/12/28 05:28:05;;;;;;;97.60;73.30;;;;;;;-2.27;100.00;99073.90;109222;1252;65160;-75
2023/12/28 05:30:32;;;;;;;100.90;75.20;;;;;;;-2.29;100.00;99086.27;109169;1253;61025;-75
2023/12/28 05:32:58;;;;;;;97.70;75.00;;;;;;;-2.31;100.00;99093.95;109264;1252;64010;-75
2023/12/28 05:35:25;;;;;;;98.80;74.60;;;;;;;-2.33;100.00;99100.23;109219;1252;58689;-75
2023/12/28 05:37:51;;;;;;;103.50;77.90;;;;;;;-2.34;100.00;99108.09;109280;1252;58641;-75
2023/12/28 05:40:18;;;;;;;108.10;80.40;;;;;;;-2.34;100.00;99115.73;109238;1252;66814;-74
2023/12/28 05:42:45;;;;;;;105.30;80.90;;;;;;;-2.32;100.00;99116.41;109164;1252;61035;-76
2023/12/28 05:45:11;;;;;;;105.70;80.30;;;;;;;-2.31;100.00;99113.61;109220;1252;63857;-75
2023/12/28 05:47:38;;;;;;;112.50;82.70;;;;;;;-2.29;100.00;99101.41;109211;1253;58486;-75
2023/12/28 05:50:05;;;;;;;106.00;78.20;;;;;;;-2.28;100.00;99097.58;109228;1252;58403;-76
2023/12/28 05:52:32;;;;;;;113.10;80.90;;;;;;;-2.29;100.00;99092.02;109192;1252;65160;-76
2023/12/28 05:54:58;;;;;;;99.70;74.10;;;;;;;-2.32;100.00;99093.27;109250;1252;61218;-76
2023/12/28 05:57:29;;;;;;;107.40;80.30;;;;;;;-2.38;100.00;99088.13;109272;1253;64742;-76
2023/12/28 05:59:57;;;;;;;102.10;75.00;;;;;;;-2.40;100.00;99087.81;109276;1253;58436;-75
2023/12/28 06:02:23;;;;;;;99.20;72.30;;;;;;;-2.45;100.00;99085.61;109285;1252;59508;-75
2023/12/28 06:04:50;;;;;;;102.50;76.20;;;;;;;-2.50;100.00;99089.67;109147;1253;65005;-75
2023/12/28 06:07:16;;;;;;;102.10;74.80;;;;;;;-2.52;100.00;99094.74;109137;1253;61051;-75
2023/12/28 06:09:44;;;;;;;104.30;75.40;;;;;;;-2.54;100.00;99090.94;109223;1253;65038;-75
2023/12/28 06:12:11;;;;;;;98.10;74.30;;;;;;;-2.54;100.00;99082.08;109202;1253;58466;-75
2023/12/28 06:14:37;;;;;;;101.20;76.80;;;;;;;-2.55;100.00;99076.36;109231;1253;58278;-75
2023/12/28 06:17:04;;;;;;;106.40;74.30;;;;;;;-2.56;100.00;99072.88;109140;1253;65061;-75
2023/12/28 06:19:30;;;;;;;107.40;77.50;;;;;;;-2.57;100.00;99071.34;109241;1253;59712;-76
2023/12/28 06:21:58;;;;;;;101.80;75.60;;;;;;;-2.58;100.00;99069.77;109221;1252;64097;-76
2023/12/28 06:24:24;;;;;;;103.30;77.90;;;;;;;-2.60;100.00;99072.77;109222;1252;59802;-75
2023/12/28 06:26:51;;;;;;;110.90;81.00;;;;;;;-2.60;100.00;99076.77;109214;1252;60443;-76
2023/12/28 06:29:18;;;;;;;113.20;78.50;;;;;;;-2.59;100.00;99076.05;109322;1253;65178;-75
2023/12/28 06:31:44;;;;;;;101.70;77.30;;;;;;;-2.57;100.00;99077.60;109225;1253;60079;-74
2023/12/28 06:34:11;;;;;;;110.90;77.60;;;;;;;-2.57;100.00;99067.33;109201;1253;65280;-75
2023/12/28 06:36:37;;;;;;;112.90;75.20;;;;;;;-2.56;100.00;99067.50;109228;1252;58216;-75
2023/12/28 06:39:04;;;;;;;101.40;69.60;;;;;;;-2.54;100.00;99074.60;109219;1252;58952;-75
2023/12/28 06:41:30;;;;;;;99.70;72.50;;;;;;;-2.47;100.00;99070.16;109217;1252;64940;-75
2023/12/28 06:43:57;;;;;;;106.20;75.60;;;;;;;-2.39;100.00;99052.13;109199;1252;59988;-75
2023/12/28 06:46:24;;;;;;;97.20;70.00;;;;;;;-2.33;100.00;99043.87;109227;1252;64401;-75
2023/12/28 06:48:50;;;;;;;97.90;66.70;;;;;;;-2.25;100.00;99049.86;109195;1252;58187;-76
2023/12/28 06:51:18;;;;;;;104.40;73.00;;;;;;;-2.13;100.00;99067.09;109199;1254;58119;-74
2023/12/28 06:53:46;;;;;;;96.90;71.60;;;;;;;-1.98;100.00;99085.31;109156;1253;66321;-76
2023/12/28 06:56:13;;;;;;;102.90;72.60;;;;;;;-1.82;100.00;99094.47;109216;1253;60114;-75
2023/12/28 06:58:39;;;;;;;99.50;73.70;;;;;;;-1.67;100.00;99097.90;109246;1252;64055;-76
2023/12/28 07:01:06;;;;;;;101.10;71.80;;;;;;;-1.56;100.00;99094.23;109238;1253;58240;-76
2023/12/28 07:03:33;;;;;;;95.20;71.70;;;;;;;-1.41;100.00;99087.87;109250;1253;58393;-76
2023/12/28 07:05:59;;;;;;;106.90;75.50;;;;;;;-1.29;100.00;99094.83;109231;1253;66224;-76
2023/12/28 07:08:26;;;;;;;99.60;71.10;;;;;;;-1.21;100.00;99099.73;109273;1252;61260;-76
2023/12/28 07:10:53;;;;;;;100.80;68.90;;;;;;;-1.13;100.00;99089.48;109265;1253;65040;-75
2023/12/28 07:13:19;;;;;;;104.50;73.30;;;;;;;-1.06;100.00;99083.08;109186;1253;58587;-74
2023/12/28 07:15:46;;;;;;;102.40;77.90;;;;;;;-1.05;100.00;99069.64;109233;1252;58431;-75
2023/12/28 07:18:13;;;;;;;99.70;72.50;;;;;;;-1.06;100.00;99063.89;109274;1252;66221;-75
2023/12/28 07:20:40;;;;;;;98.20;70.00;;;;;;;-1.05;100.00;99067.18;109259;1252;61248;-75
2023/12/28 07:23:06;;;;;;;96.10;72.60;;;;;;;-1.03;100.00;99069.41;109226;1253;65192;-76
2023/12/28 07:25:33;;;;;;;89.50;66.40;;;;;;;-0.96;100.00;99066.14;109233;1253;58494;-76
2023/12/28 07:27:59;;;;;;;85.20;65.20;;;;;;;-0.84;100.00;99059.47;109227;1253;58335;-77
2023/12/28 07:30:26;;;;;;;92.50;67.30;;;;;;;-0.76;100.00;99059.47;108441;1253;1002974;-75
2023/12/28 07:32:53;;;;;;;88.00;65.20;;;;;;;-0.68;100.00;99059.49;109218;1254;60812;-76
2023/12/28 07:35:19;;;;;;;85.30;61.10;;;;;;;-0.59;100.00;99059.14;109204;1253;65098;-76
2023/12/28 07:37:46;;;;;;;86.80;64.60;;;;;;;-0.49;100.00;99067.48;109198;1253;58587;-76
2023/12/28 07:40:13;;;;;;;90.50;66.40;;;;;;;-0.40;100.00;99071.30;109245;1253;58166;-75
2023/12/28 07:42:40;;;;;;;92.20;65.90;;;;;;;-0.29;100.00;99075.77;109244;1252;66337;-76
2023/12/28 07:45:07;;;;;;;91.10;66.60;;;;;;;-0.18;100.00;99078.31;109259;1253;61610;-76
2023/12/28 07:47:33;;;;;;;84.00;62.00;;;;;;;-0.07;100.00;99069.85;109310;1253;62863;-75
2023/12/28 07:50:00;;;;;;;86.30;68.50;;;;;;;0.07;100.00;99056.80;109255;1254;58722;-76
2023/12/28 07:52:27;;;;;;;95.30;68.80;;;;;;;0.17;100.00;99054.30;109447;1252;58057;-75
2023/12/28 07:54:54;;;;;;;84.50;64.60;;;;;;;0.25;100.00;99055.84;109472;1253;64853;-76
2023/12/28 07:57:21;;;;;;;81.10;64.10;;;;;;;0.34;100.00;99055.45;109490;1252;61042;-75
2023/12/28 07:59:47;;;;;;;81.50;64.00;;;;;;;0.44;100.00;99050.51;109400;1253;64023;-76
2023/12/28 08:02:14;;;;;;;85.60;67.00;;;;;;;0.52;100.00;99047.83;109346;1253;58146;-76
2023/12/28 08:04:41;;;;;;;86.70;67.20;;;;;;;0.59;100.00;99052.89;109465;1252;58324;-77
2023/12/28 08:07:08;;;;;;;84.10;66.10;;;;;;;0.67;100.00;99058.48;109490;1252;66248;-76
2023/12/28 08:09:35;;;;;;;79.30;60.80;;;;;;;0.75;100.00;99064.89;109421;1252;61271;-76
2023/12/28 08:12:02;;;;;;;84.10;62.80;;;;;;;0.83;100.00;99075.34;109065;1253;65330;-76
2023/12/28 08:14:29;;;;;;;80.40;59.70;;;;;;;0.93;100.00;99075.45;109274;1253;58670;-76
2023/12/28 08:16:56;;;;;;;84.90;60.40;;;;;;;1.03;100.00;99074.66;109216;1252;58284;-76
2023/12/28 08:19:22;;;;;;;78.10;62.20;;;;;;;1.14;100.00;99076.80;109191;1253;66169;-75
2023/12/28 08:21:49;;;;;;;83.70;61.60;;;;;;;1.24;100.00;99079.86;109267;1252;58792;-76
2023/12/28 08:24:16;;;;;;;77.00;58.40;;;;;;;1.34;100.00;99081.67;108408;1253;1003009;-76
2023/12/28 08:26:43;;;;;;;80.80;58.20;;;;;;;1.45;100.00;99083.27;109315;1253;58454;-77
2023/12/28 08:29:09;;;;;;;84.80;57.40;;;;;;;1.57;100.00;99077.52;109385;1252;58413;-78
2023/12/28 08:31:36;;;;;;;78.20;56.00;;;;;;;1.66;100.00;99068.86;109435;1253;66342;-77
2023/12/28 08:34:03;;;;;;;78.10;58.00;;;;;;;1.74;100.00;99067.04;109490;1253;60095;-77
2023/12/28 08:36:29;;;;;;;73.90;57.90;;;;;;;1.82;100.00;99063.45;109390;1252;65168;-77
2023/12/28 08:38:56;;;;;;;78.30;59.80;;;;;;;1.92;100.00;99069.30;109342;1253;58420;-77
2023/12/28 08:41:24;;;;;;;78.40;57.90;;;;;;;2.03;100.00;99076.83;109425;1252;58309;-79
2023/12/28 08:43:51;;;;;;;83.90;62.50;;;;;;;2.17;100.00;99078.67;109387;1252;65202;-76
2023/12/28 08:46:19;;;;;;;65.40;52.20;;;;;;;2.29;100.00;99074.27;109454;1252;60157;-77
2023/12/28 08:48:46;;;;;;;70.50;56.20;;;;;;;2.41;100.00;99077.92;109335;1253;74283;-76
2023/12/28 08:51:14;;;;;;;75.10;55.90;;;;;;;2.49;100.00;99076.26;109317;1253;58324;-76
2023/12/28 08:53:41;;;;;;;68.60;51.30;;;;;;;2.56;100.00;99072.52;109353;1252;58280;-78
2023/12/28 08:56:15;;;;;;;73.50;54.30;;;;;;;2.66;100.00;99066.94;109349;1252;66469;-78
2023/12/28 08:58:42;;;;;;;61.20;44.80;;;;;;;2.74;100.00;99066.80;109305;1252;59299;-78
2023/12/28 09:01:08;;;;;;;64.40;50.50;;;;;;;2.85;100.00;99068.20;109397;1252;63815;-77
2023/12/28 09:03:35;;;;;;;61.00;48.50;;;;;;;2.98;100.00;99066.01;109405;1252;58338;-77
2023/12/28 09:06:02;;;;;;;65.00;48.00;;;;;;;3.09;100.00;99068.08;109407;1252;58232;-77
2023/12/28 09:08:28;;;;;;;62.50;43.20;;;;;;;3.19;100.00;99082.99;109408;1255;66243;-77
2023/12/28 09:10:55;;;;;;;64.20;48.60;;;;;;;3.31;100.00;99098.01;109447;1252;61059;-78
2023/12/28 09:13:21;;;;;;;66.90;50.10;;;;;;;3.45;100.00;99100.86;109092;1253;64184;-79
2023/12/28 09:15:48;;;;;;;70.20;54.20;;;;;;;3.55;100.00;99092.23;109407;1252;58134;-79
2023/12/28 09:18:15;;;;;;;63.00;49.20;;;;;;;3.61;100.00;99082.32;109387;1252;58095;-79
2023/12/28 09:20:41;;;;;;;67.40;51.00;;;;;;;3.70;100.00;99077.63;109387;1253;65108;-77
2023/12/28 09:23:09;;;;;;;63.40;48.10;;;;;;;3.77;100.00;99084.21;109422;1252;60067;-77
2023/12/28 09:25:38;;;;;;;58.20;43.10;;;;;;;3.86;100.00;99083.15;109374;1252;64195;-76
2023/12/28 09:28:05;;;;;;;50.80;39.50;;;;;;;3.98;100.00;99083.58;109412;1252;58516;-77
2023/12/28 09:30:32;;;;;;;60.10;44.20;;;;;;;4.08;100.00;99084.92;109078;1256;58184;-77
2023/12/28 09:32:58;;;;;;;62.70;47.90;;;;;;;4.19;100.00;99089.06;109089;1255;65240;-77
2023/12/28 09:35:25;;;;;;;66.60;52.60;;;;;;;4.29;100.00;99087.61;109001;1256;58774;-76
2023/12/28 09:37:52;;;;;;;68.70;51.50;;;;;;;4.37;100.00;99081.34;109087;1255;65114;-76
2023/12/28 09:40:18;;;;;;;67.20;52.20;;;;;;;4.41;100.00;99070.45;109049;1256;58252;-78
2023/12/28 09:42:57;;;;;;;58.30;43.90;;;;;;;4.46;100.00;99063.57;109101;1255;58253;-77
2023/12/28 09:45:25;;;;;;;55.20;42.20;;;;;;;4.55;100.00;99062.27;109066;1255;65221;-78
2023/12/28 09:47:52;;;;;;;51.50;40.30;;;;;;;4.67;100.00;99057.95;108940;1256;60897;-78
2023/12/28 09:50:19;;;;;;;52.40;39.60;;;;;;;4.78;100.00;99048.17;108998;1256;65250;-76
2023/12/28 09:52:45;;;;;;;45.70;35.30;;;;;;;4.85;100.00;99037.45;109084;1256;58359;-77
2023/12/28 09:55:12;;;;;;;43.60;33.80;;;;;;;4.93;100.00;99038.33;109078;1256;58126;-76
2023/12/28 09:57:40;;;;;;;39.30;30.80;;;;;;;5.01;100.00;99038.02;109066;1255;66248;-77
2023/12/28 10:00:07;;;;;;;39.10;29.10;;;;;;;5.09;100.00;99044.18;109091;1256;61056;-78
2023/12/28 10:02:35;;;;;;;37.90;29.80;;;;;;;5.18;100.00;99047.98;109312;1253;64069;-78
2023/12/28 10:05:02;;;;;;;36.10;27.90;;;;;;;5.28;100.00;99044.58;109096;1254;58274;-76
2023/12/28 10:07:28;;;;;;;33.70;26.10;;;;;;;5.38;100.00;99042.52;109412;1256;58375;-78
2023/12/28 10:09:55;;;;;;;34.20;25.30;;;;;;;5.53;100.00;99039.73;109336;1252;65220;-77
2023/12/28 10:12:21;;;;;;;30.10;21.10;;;;;;;5.69;100.00;99032.49;109283;1254;60301;-77
2023/12/28 10:14:50;;;;;;;25.00;18.80;;;;;;;5.84;100.00;99030.35;109382;1252;64064;-78
2023/12/28 10:17:17;;;;;;;22.80;16.50;;;;;;;6.02;100.00;99029.90;109423;1252;58168;-77
2023/12/28 10:19:47;;;;;;;19.90;14.70;;;;;;;6.19;100.00;99030.83;109407;1252;58226;-77
2023/12/28 10:22:14;;;;;;;19.60;13.80;;;;;;;6.38;100.00;99033.12;109225;1253;66230;-77
2023/12/28 10:24:43;;;;;;;17.50;12.40;;;;;;;6.61;100.00;99036.54;109279;1252;61176;-77
2023/12/28 10:27:10;;;;;;;16.00;12.00;;;;;;;6.82;100.00;99033.74;109372;1253;65208;-77
2023/12/28 10:29:36;;;;;;;16.00;12.30;;;;;;;7.00;100.00;99035.42;109413;1252;58179;-77
2023/12/28 10:32:03;;;;;;;17.10;12.10;;;;;;;7.19;100.00;99034.63;109365;1253;58310;-78
2023/12/28 10:34:30;;;;;;;16.60;12.40;;;;;;;7.35;100.00;99037.48;109315;1254;66209;-76
2023/12/28 10:36:59;;;;;;;16.00;11.80;;;;;;;7.47;100.00;99037.76;109304;1254;61649;-78
2023/12/28 10:39:27;;;;;;;14.70;11.60;;;;;;;7.57;100.00;99039.36;109373;1252;65167;-78
2023/12/28 10:41:56;;;;;;;13.80;10.50;;;;;;;7.67;100.00;99030.29;109367;1252;59397;-78
2023/12/28 10:44:27;;;;;;;13.70;10.30;;;;;;;7.78;100.00;99027.25;109178;1254;58483;-78
2023/12/28 10:47:01;;;;;;;15.10;10.50;;;;;;;7.87;100.00;99033.28;109205;1254;66197;-77
2023/12/28 10:49:30;;;;;;;13.30;10.00;;;;;;;7.97;100.00;99034.86;109258;1254;61229;-77
2023/12/28 10:51:57;;;;;;;14.50;11.10;;;;;;;8.06;100.00;99039.47;109262;1253;64091;-77
2023/12/28 10:54:31;;;;;;;12.30;10.70;;;;;;;8.14;100.00;99041.87;109122;1256;58661;-77
2023/12/28 10:57:31;;;;;;;13.90;10.10;;;;;;;8.20;100.00;99036.93;109246;1254;58663;-77
2023/12/28 11:00:11;;;;;;;16.30;10.50;;;;;;;8.26;100.00;99026.33;108782;1262;66511;-77
2023/12/28 11:02:42;;;;;;;13.00;10.60;;;;;;;8.30;100.00;99019.16;108811;1261;58764;-78